sensor_id;sensor_type;location;lat;lon;timestamp;P1;durP1;ratioP1;P2;durP2;ratioP2
21564;SDS011;10943;48.738;9.320;2022-09-13T00:01:09;5.25;;;2.65;;
21564;SDS011;10943;48.738;9.320;2022-09-13T00:03:36;6.45;;;2.50;;
21564;SDS011;10943;48.738;9.320;2022-09-13T00:06:05;4.28;;;2.58;;
21564;SDS011;10943;48.738;9.320;2022-09-13T00:08:37;5.53;;;2.78;;
21564;SDS011;10943;48.738;9.320;2022-09-13T00:11:05;4.60;;;2.90;;
21564;SDS011;10943;48.738;9.320;2022-09-13T00:13:39;4.97;;;2.95;;
21564;SDS011;10943;48.738;9.320;2022-09-13T00:16:09;5.13;;;2.75;;
21564;SDS011;10943;48.738;9.320;2022-09-13T00:18:40;6.32;;;3.10;;
21564;SDS011;10943;48.738;9.320;2022-09-13T00:21:09;6.32;;;3.03;;
21564;SDS011;10943;48.738;9.320;2022-09-13T00:23:43;8.55;;;3.80;;
21564;SDS011;10943;48.738;9.320;2022-09-13T00:26:14;7.28;;;3.47;;
21564;SDS011;10943;48.738;9.320;2022-09-13T00:28:52;7.13;;;3.50;;
21564;SDS011;10943;48.738;9.320;2022-09-13T00:31:25;5.70;;;3.50;;
21564;SDS011;10943;48.738;9.320;2022-09-13T00:33:54;8.13;;;4.05;;
21564;SDS011;10943;48.738;9.320;2022-09-13T00:36:25;10.23;;;3.50;;
21564;SDS011;10943;48.738;9.320;2022-09-13T00:38:53;6.80;;;3.10;;
21564;SDS011;10943;48.738;9.320;2022-09-13T00:41:20;6.38;;;3.40;;
21564;SDS011;10943;48.738;9.320;2022-09-13T00:43:49;6.25;;;2.90;;
21564;SDS011;10943;48.738;9.320;2022-09-13T00:46:43;5.22;;;3.10;;
21564;SDS011;10943;48.738;9.320;2022-09-13T00:51:53;5.85;;;3.00;;
21564;SDS011;10943;48.738;9.320;2022-09-13T00:54:31;5.07;;;2.92;;
21564;SDS011;10943;48.738;9.320;2022-09-13T01:00:25;5.15;;;2.83;;
21564;SDS011;10943;48.738;9.320;2022-09-13T01:02:54;7.38;;;3.42;;
21564;SDS011;10943;48.738;9.320;2022-09-13T01:05:31;7.82;;;3.88;;
21564;SDS011;10943;48.738;9.320;2022-09-13T01:08:05;8.50;;;3.88;;
21564;SDS011;10943;48.738;9.320;2022-09-13T01:10:43;6.05;;;3.35;;
21564;SDS011;10943;48.738;9.320;2022-09-13T01:13:13;5.43;;;3.35;;
21564;SDS011;10943;48.738;9.320;2022-09-13T01:15:47;6.00;;;3.13;;
21564;SDS011;10943;48.738;9.320;2022-09-13T01:18:15;4.95;;;3.28;;
21564;SDS011;10943;48.738;9.320;2022-09-13T01:20:45;4.65;;;3.10;;
21564;SDS011;10943;48.738;9.320;2022-09-13T01:46:25;7.72;;;3.70;;
21564;SDS011;10943;48.738;9.320;2022-09-13T01:49:13;8.65;;;3.97;;
21564;SDS011;10943;48.738;9.320;2022-09-13T01:52:07;7.10;;;3.50;;
21564;SDS011;10943;48.738;9.320;2022-09-13T01:54:54;6.03;;;4.07;;
21564;SDS011;10943;48.738;9.320;2022-09-13T02:00:44;9.82;;;4.63;;
21564;SDS011;10943;48.738;9.320;2022-09-13T02:03:28;7.32;;;4.65;;
21564;SDS011;10943;48.738;9.320;2022-09-13T02:06:17;7.10;;;4.78;;
21564;SDS011;10943;48.738;9.320;2022-09-13T02:08:53;6.32;;;4.30;;
21564;SDS011;10943;48.738;9.320;2022-09-13T02:11:27;9.60;;;3.90;;
21564;SDS011;10943;48.738;9.320;2022-09-13T02:13:59;6.63;;;4.25;;
21564;SDS011;10943;48.738;9.320;2022-09-13T02:22:30;7.07;;;4.13;;
21564;SDS011;10943;48.738;9.320;2022-09-13T02:25:05;6.53;;;3.80;;
21564;SDS011;10943;48.738;9.320;2022-09-13T02:27:40;7.47;;;4.10;;
21564;SDS011;10943;48.738;9.320;2022-09-13T02:30:15;10.38;;;4.32;;
21564;SDS011;10943;48.738;9.320;2022-09-13T02:32:47;8.02;;;4.40;;
21564;SDS011;10943;48.738;9.320;2022-09-13T02:35:32;6.72;;;3.95;;
21564;SDS011;10943;48.738;9.320;2022-09-13T02:38:10;7.60;;;4.10;;
21564;SDS011;10943;48.738;9.320;2022-09-13T02:40:52;6.55;;;4.40;;
21564;SDS011;10943;48.738;9.320;2022-09-13T02:43:34;7.20;;;4.03;;
21564;SDS011;10943;48.738;9.320;2022-09-13T02:57:28;5.95;;;4.10;;
21564;SDS011;10943;48.738;9.320;2022-09-13T03:00:12;7.00;;;3.95;;
21564;SDS011;10943;48.738;9.320;2022-09-13T03:02:40;6.47;;;4.20;;
21564;SDS011;10943;48.738;9.320;2022-09-13T03:05:11;7.90;;;4.65;;
21564;SDS011;10943;48.738;9.320;2022-09-13T03:07:38;6.60;;;4.40;;
21564;SDS011;10943;48.738;9.320;2022-09-13T03:10:06;6.25;;;4.10;;
21564;SDS011;10943;48.738;9.320;2022-09-13T03:28:53;7.05;;;4.50;;
21564;SDS011;10943;48.738;9.320;2022-09-13T03:32:01;9.80;;;4.63;;
21564;SDS011;10943;48.738;9.320;2022-09-13T03:40:12;7.00;;;4.70;;
21564;SDS011;10943;48.738;9.320;2022-09-13T03:42:50;7.65;;;4.90;;
21564;SDS011;10943;48.738;9.320;2022-09-13T03:45:41;9.63;;;4.72;;
21564;SDS011;10943;48.738;9.320;2022-09-13T03:48:21;7.68;;;4.90;;
21564;SDS011;10943;48.738;9.320;2022-09-13T03:50:50;8.38;;;4.75;;
21564;SDS011;10943;48.738;9.320;2022-09-13T03:53:19;8.00;;;4.50;;
21564;SDS011;10943;48.738;9.320;2022-09-13T03:55:59;7.00;;;4.43;;
21564;SDS011;10943;48.738;9.320;2022-09-13T03:58:26;7.47;;;4.78;;
21564;SDS011;10943;48.738;9.320;2022-09-13T04:00:54;7.80;;;4.82;;
21564;SDS011;10943;48.738;9.320;2022-09-13T04:03:21;6.93;;;4.40;;
21564;SDS011;10943;48.738;9.320;2022-09-13T04:05:49;9.75;;;4.50;;
21564;SDS011;10943;48.738;9.320;2022-09-13T04:08:16;8.50;;;4.53;;
21564;SDS011;10943;48.738;9.320;2022-09-13T04:10:44;9.13;;;4.70;;
21564;SDS011;10943;48.738;9.320;2022-09-13T04:13:16;8.93;;;5.07;;
21564;SDS011;10943;48.738;9.320;2022-09-13T04:15:44;9.15;;;4.60;;
21564;SDS011;10943;48.738;9.320;2022-09-13T04:18:11;7.03;;;4.15;;
21564;SDS011;10943;48.738;9.320;2022-09-13T04:20:38;6.65;;;4.13;;
21564;SDS011;10943;48.738;9.320;2022-09-13T04:23:05;7.70;;;4.35;;
21564;SDS011;10943;48.738;9.320;2022-09-13T04:25:33;7.55;;;4.22;;
21564;SDS011;10943;48.738;9.320;2022-09-13T04:28:05;6.63;;;4.25;;
21564;SDS011;10943;48.738;9.320;2022-09-13T04:30:33;8.20;;;4.60;;
21564;SDS011;10943;48.738;9.320;2022-09-13T04:33:00;6.72;;;4.07;;
21564;SDS011;10943;48.738;9.320;2022-09-13T04:35:27;7.25;;;4.32;;
21564;SDS011;10943;48.738;9.320;2022-09-13T04:37:55;12.35;;;4.70;;
21564;SDS011;10943;48.738;9.320;2022-09-13T04:40:23;10.05;;;4.60;;
21564;SDS011;10943;48.738;9.320;2022-09-13T04:42:51;6.90;;;4.88;;
21564;SDS011;10943;48.738;9.320;2022-09-13T04:45:18;7.95;;;4.68;;
21564;SDS011;10943;48.738;9.320;2022-09-13T04:47:50;12.23;;;4.85;;
21564;SDS011;10943;48.738;9.320;2022-09-13T04:50:19;8.93;;;5.05;;
21564;SDS011;10943;48.738;9.320;2022-09-13T04:52:49;8.43;;;4.70;;
21564;SDS011;10943;48.738;9.320;2022-09-13T04:55:26;8.27;;;4.85;;
21564;SDS011;10943;48.738;9.320;2022-09-13T04:57:54;9.02;;;4.70;;
21564;SDS011;10943;48.738;9.320;2022-09-13T05:00:21;8.80;;;4.55;;
21564;SDS011;10943;48.738;9.320;2022-09-13T05:02:55;9.98;;;5.13;;
21564;SDS011;10943;48.738;9.320;2022-09-13T05:05:22;11.82;;;5.18;;
21564;SDS011;10943;48.738;9.320;2022-09-13T05:07:51;7.68;;;4.65;;
21564;SDS011;10943;48.738;9.320;2022-09-13T05:10:18;9.45;;;4.55;;
21564;SDS011;10943;48.738;9.320;2022-09-13T05:12:46;12.45;;;4.70;;
21564;SDS011;10943;48.738;9.320;2022-09-13T05:15:13;8.10;;;4.40;;
21564;SDS011;10943;48.738;9.320;2022-09-13T05:17:41;7.68;;;4.97;;
21564;SDS011;10943;48.738;9.320;2022-09-13T05:20:08;8.52;;;4.53;;
21564;SDS011;10943;48.738;9.320;2022-09-13T05:22:37;8.30;;;4.65;;
21564;SDS011;10943;48.738;9.320;2022-09-13T05:25:04;14.40;;;5.30;;
21564;SDS011;10943;48.738;9.320;2022-09-13T05:27:32;13.68;;;5.10;;
21564;SDS011;10943;48.738;9.320;2022-09-13T05:30:00;10.25;;;4.90;;
21564;SDS011;10943;48.738;9.320;2022-09-13T05:32:27;14.70;;;5.00;;
21564;SDS011;10943;48.738;9.320;2022-09-13T05:34:57;8.20;;;4.13;;
21564;SDS011;10943;48.738;9.320;2022-09-13T05:37:25;9.07;;;4.68;;
21564;SDS011;10943;48.738;9.320;2022-09-13T05:39:52;10.10;;;4.28;;
21564;SDS011;10943;48.738;9.320;2022-09-13T05:42:37;7.07;;;3.67;;
21564;SDS011;10943;48.738;9.320;2022-09-13T05:45:04;9.02;;;3.70;;
21564;SDS011;10943;48.738;9.320;2022-09-13T05:47:33;8.98;;;3.90;;
21564;SDS011;10943;48.738;9.320;2022-09-13T05:50:00;6.18;;;3.50;;
21564;SDS011;10943;48.738;9.320;2022-09-13T05:52:39;6.38;;;3.38;;
21564;SDS011;10943;48.738;9.320;2022-09-13T05:55:07;8.48;;;3.70;;
21564;SDS011;10943;48.738;9.320;2022-09-13T05:57:35;13.27;;;4.20;;
21564;SDS011;10943;48.738;9.320;2022-09-13T06:00:03;6.53;;;3.25;;
21564;SDS011;10943;48.738;9.320;2022-09-13T06:02:48;7.28;;;3.65;;
21564;SDS011;10943;48.738;9.320;2022-09-13T06:05:34;10.52;;;3.97;;
21564;SDS011;10943;48.738;9.320;2022-09-13T06:08:01;12.35;;;3.78;;
21564;SDS011;10943;48.738;9.320;2022-09-13T06:10:28;7.60;;;3.80;;
21564;SDS011;10943;48.738;9.320;2022-09-13T06:12:56;10.07;;;4.07;;
21564;SDS011;10943;48.738;9.320;2022-09-13T06:15:23;10.02;;;3.58;;
21564;SDS011;10943;48.738;9.320;2022-09-13T06:17:50;10.45;;;3.83;;
21564;SDS011;10943;48.738;9.320;2022-09-13T06:20:17;11.00;;;4.03;;
21564;SDS011;10943;48.738;9.320;2022-09-13T06:22:46;10.20;;;4.82;;
21564;SDS011;10943;48.738;9.320;2022-09-13T06:25:14;9.75;;;4.25;;
21564;SDS011;10943;48.738;9.320;2022-09-13T06:27:42;17.27;;;5.20;;
21564;SDS011;10943;48.738;9.320;2022-09-13T06:30:09;11.30;;;5.03;;
21564;SDS011;10943;48.738;9.320;2022-09-13T06:32:38;11.25;;;4.75;;
21564;SDS011;10943;48.738;9.320;2022-09-13T06:35:06;11.25;;;4.63;;
21564;SDS011;10943;48.738;9.320;2022-09-13T06:37:34;16.13;;;5.90;;
21564;SDS011;10943;48.738;9.320;2022-09-13T06:40:01;12.25;;;4.50;;
21564;SDS011;10943;48.738;9.320;2022-09-13T06:42:32;15.48;;;5.20;;
21564;SDS011;10943;48.738;9.320;2022-09-13T06:45:02;10.55;;;3.75;;
21564;SDS011;10943;48.738;9.320;2022-09-13T06:47:30;14.60;;;4.65;;
21564;SDS011;10943;48.738;9.320;2022-09-13T06:49:57;8.32;;;4.30;;
21564;SDS011;10943;48.738;9.320;2022-09-13T06:52:26;11.68;;;4.22;;
21564;SDS011;10943;48.738;9.320;2022-09-13T06:54:53;11.20;;;4.28;;
21564;SDS011;10943;48.738;9.320;2022-09-13T06:57:20;15.05;;;3.58;;
21564;SDS011;10943;48.738;9.320;2022-09-13T06:59:48;9.10;;;3.97;;
21564;SDS011;10943;48.738;9.320;2022-09-13T07:02:16;6.43;;;3.65;;
21564;SDS011;10943;48.738;9.320;2022-09-13T07:04:44;10.90;;;3.83;;
21564;SDS011;10943;48.738;9.320;2022-09-13T07:07:11;5.32;;;3.08;;
21564;SDS011;10943;48.738;9.320;2022-09-13T07:09:44;8.23;;;2.90;;
21564;SDS011;10943;48.738;9.320;2022-09-13T07:12:11;7.22;;;2.85;;
21564;SDS011;10943;48.738;9.320;2022-09-13T07:14:44;10.73;;;3.78;;
21564;SDS011;10943;48.738;9.320;2022-09-13T07:17:11;12.13;;;3.08;;
21564;SDS011;10943;48.738;9.320;2022-09-13T07:19:39;7.95;;;3.10;;
21564;SDS011;10943;48.738;9.320;2022-09-13T07:22:06;6.78;;;2.85;;
21564;SDS011;10943;48.738;9.320;2022-09-13T07:24:33;7.88;;;2.80;;
21564;SDS011;10943;48.738;9.320;2022-09-13T07:27:01;10.88;;;3.38;;
21564;SDS011;10943;48.738;9.320;2022-09-13T07:29:29;8.93;;;3.15;;
21564;SDS011;10943;48.738;9.320;2022-09-13T07:31:56;10.38;;;3.15;;
21564;SDS011;10943;48.738;9.320;2022-09-13T07:34:24;13.20;;;3.40;;
21564;SDS011;10943;48.738;9.320;2022-09-13T07:36:53;7.57;;;3.13;;
21564;SDS011;10943;48.738;9.320;2022-09-13T07:39:20;8.88;;;2.70;;
21564;SDS011;10943;48.738;9.320;2022-09-13T07:41:50;7.63;;;2.90;;
21564;SDS011;10943;48.738;9.320;2022-09-13T07:44:19;10.48;;;3.10;;
21564;SDS011;10943;48.738;9.320;2022-09-13T07:46:48;6.82;;;2.90;;
21564;SDS011;10943;48.738;9.320;2022-09-13T07:49:16;8.35;;;2.85;;
21564;SDS011;10943;48.738;9.320;2022-09-13T07:51:45;6.30;;;2.85;;
21564;SDS011;10943;48.738;9.320;2022-09-13T07:54:17;7.88;;;3.05;;
21564;SDS011;10943;48.738;9.320;2022-09-13T07:56:46;8.70;;;2.90;;
21564;SDS011;10943;48.738;9.320;2022-09-13T07:59:16;10.98;;;3.20;;
21564;SDS011;10943;48.738;9.320;2022-09-13T08:01:45;8.90;;;2.97;;
21564;SDS011;10943;48.738;9.320;2022-09-13T08:04:18;7.55;;;2.70;;
21564;SDS011;10943;48.738;9.320;2022-09-13T08:06:50;7.25;;;2.60;;
21564;SDS011;10943;48.738;9.320;2022-09-13T08:09:18;6.03;;;2.30;;
21564;SDS011;10943;48.738;9.320;2022-09-13T08:11:47;5.82;;;2.38;;
21564;SDS011;10943;48.738;9.320;2022-09-13T08:14:24;6.25;;;2.20;;
21564;SDS011;10943;48.738;9.320;2022-09-13T08:18:13;6.15;;;2.45;;
21564;SDS011;10943;48.738;9.320;2022-09-13T08:22:19;4.72;;;2.08;;
21564;SDS011;10943;48.738;9.320;2022-09-13T08:25:16;4.65;;;2.03;;
21564;SDS011;10943;48.738;9.320;2022-09-13T08:27:43;5.75;;;2.40;;
21564;SDS011;10943;48.738;9.320;2022-09-13T08:30:11;5.47;;;2.05;;
21564;SDS011;10943;48.738;9.320;2022-09-13T08:32:39;5.97;;;2.13;;
21564;SDS011;10943;48.738;9.320;2022-09-13T08:35:06;6.30;;;2.47;;
21564;SDS011;10943;48.738;9.320;2022-09-13T08:37:37;9.27;;;2.40;;
21564;SDS011;10943;48.738;9.320;2022-09-13T08:40:05;7.80;;;2.00;;
21564;SDS011;10943;48.738;9.320;2022-09-13T08:45:41;5.05;;;1.80;;
21564;SDS011;10943;48.738;9.320;2022-09-13T08:48:18;6.97;;;2.13;;
21564;SDS011;10943;48.738;9.320;2022-09-13T08:50:57;4.60;;;2.08;;
21564;SDS011;10943;48.738;9.320;2022-09-13T08:53:38;7.53;;;2.17;;
21564;SDS011;10943;48.738;9.320;2022-09-13T08:56:18;6.10;;;2.00;;
21564;SDS011;10943;48.738;9.320;2022-09-13T09:05:50;5.03;;;2.08;;
21564;SDS011;10943;48.738;9.320;2022-09-13T09:11:01;7.22;;;2.20;;
21564;SDS011;10943;48.738;9.320;2022-09-13T09:13:48;5.68;;;1.80;;
21564;SDS011;10943;48.738;9.320;2022-09-13T09:16:34;4.47;;;1.70;;
21564;SDS011;10943;48.738;9.320;2022-09-13T09:22:10;7.03;;;1.75;;
21564;SDS011;10943;48.738;9.320;2022-09-13T09:24:49;6.55;;;1.90;;
21564;SDS011;10943;48.738;9.320;2022-09-13T09:27:21;6.55;;;1.67;;
21564;SDS011;10943;48.738;9.320;2022-09-13T09:29:50;5.72;;;1.52;;
21564;SDS011;10943;48.738;9.320;2022-09-13T09:32:30;6.00;;;1.40;;
21564;SDS011;10943;48.738;9.320;2022-09-13T09:35:15;5.13;;;1.58;;
21564;SDS011;10943;48.738;9.320;2022-09-13T09:40:38;3.80;;;1.50;;
21564;SDS011;10943;48.738;9.320;2022-09-13T09:43:11;3.78;;;1.30;;
21564;SDS011;10943;48.738;9.320;2022-09-13T09:45:53;4.75;;;1.30;;
21564;SDS011;10943;48.738;9.320;2022-09-13T09:48:25;4.35;;;1.40;;
21564;SDS011;10943;48.738;9.320;2022-09-13T09:51:15;4.90;;;1.20;;
21564;SDS011;10943;48.738;9.320;2022-09-13T09:53:48;5.13;;;1.30;;
21564;SDS011;10943;48.738;9.320;2022-09-13T09:56:29;4.60;;;1.30;;
21564;SDS011;10943;48.738;9.320;2022-09-13T09:59:00;6.00;;;1.10;;
21564;SDS011;10943;48.738;9.320;2022-09-13T10:06:42;5.82;;;1.50;;
21564;SDS011;10943;48.738;9.320;2022-09-13T10:17:13;5.45;;;1.30;;
21564;SDS011;10943;48.738;9.320;2022-09-13T10:23:08;5.93;;;1.35;;
21564;SDS011;10943;48.738;9.320;2022-09-13T10:25:56;5.45;;;1.40;;
21564;SDS011;10943;48.738;9.320;2022-09-13T10:28:41;7.80;;;1.50;;
21564;SDS011;10943;48.738;9.320;2022-09-13T10:31:26;4.47;;;1.27;;
21564;SDS011;10943;48.738;9.320;2022-09-13T10:34:03;3.15;;;1.23;;
21564;SDS011;10943;48.738;9.320;2022-09-13T10:39:29;4.72;;;1.30;;
21564;SDS011;10943;48.738;9.320;2022-09-13T10:42:04;5.50;;;1.20;;
21564;SDS011;10943;48.738;9.320;2022-09-13T10:47:16;4.18;;;1.10;;
21564;SDS011;10943;48.738;9.320;2022-09-13T10:49:53;4.13;;;1.23;;
21564;SDS011;10943;48.738;9.320;2022-09-13T10:52:29;4.30;;;1.20;;
21564;SDS011;10943;48.738;9.320;2022-09-13T10:57:52;3.40;;;1.25;;
21564;SDS011;10943;48.738;9.320;2022-09-13T11:06:41;3.88;;;0.90;;
21564;SDS011;10943;48.738;9.320;2022-09-13T11:09:55;4.35;;;0.95;;
21564;SDS011;10943;48.738;9.320;2022-09-13T11:12:58;4.15;;;0.80;;
21564;SDS011;10943;48.738;9.320;2022-09-13T11:16:03;3.08;;;1.00;;
21564;SDS011;10943;48.738;9.320;2022-09-13T11:21:42;3.22;;;0.70;;
21564;SDS011;10943;48.738;9.320;2022-09-13T11:25:00;3.25;;;1.08;;
21564;SDS011;10943;48.738;9.320;2022-09-13T11:28:12;2.67;;;0.80;;
21564;SDS011;10943;48.738;9.320;2022-09-13T11:42:51;2.20;;;0.88;;
21564;SDS011;10943;48.738;9.320;2022-09-13T11:48:44;2.08;;;0.60;;
21564;SDS011;10943;48.738;9.320;2022-09-13T11:54:31;4.15;;;0.68;;
21564;SDS011;10943;48.738;9.320;2022-09-13T11:57:13;2.03;;;0.73;;
21564;SDS011;10943;48.738;9.320;2022-09-13T11:59:53;1.65;;;0.70;;
21564;SDS011;10943;48.738;9.320;2022-09-13T12:02:44;4.22;;;0.80;;
21564;SDS011;10943;48.738;9.320;2022-09-13T12:06:01;4.38;;;0.50;;
21564;SDS011;10943;48.738;9.320;2022-09-13T12:08:48;3.42;;;0.73;;
21564;SDS011;10943;48.738;9.320;2022-09-13T12:11:33;3.88;;;0.77;;
21564;SDS011;10943;48.738;9.320;2022-09-13T12:14:11;3.05;;;0.50;;
21564;SDS011;10943;48.738;9.320;2022-09-13T12:16:49;1.77;;;0.60;;
21564;SDS011;10943;48.738;9.320;2022-09-13T12:22:04;4.60;;;0.70;;
21564;SDS011;10943;48.738;9.320;2022-09-13T12:24:44;2.38;;;0.50;;
21564;SDS011;10943;48.738;9.320;2022-09-13T12:30:08;2.65;;;0.40;;
21564;SDS011;10943;48.738;9.320;2022-09-13T12:32:48;1.52;;;0.40;;
21564;SDS011;10943;48.738;9.320;2022-09-13T12:35:28;3.17;;;0.70;;
21564;SDS011;10943;48.738;9.320;2022-09-13T12:53:07;1.95;;;0.70;;
21564;SDS011;10943;48.738;9.320;2022-09-13T13:01:33;1.67;;;0.40;;
21564;SDS011;10943;48.738;9.320;2022-09-13T13:04:08;3.28;;;0.60;;
21564;SDS011;10943;48.738;9.320;2022-09-13T13:09:30;1.05;;;0.30;;
21564;SDS011;10943;48.738;9.320;2022-09-13T13:12:10;1.13;;;0.30;;
21564;SDS011;10943;48.738;9.320;2022-09-13T13:15:00;1.25;;;0.50;;
21564;SDS011;10943;48.738;9.320;2022-09-13T13:18:23;1.85;;;0.30;;
21564;SDS011;10943;48.738;9.320;2022-09-13T13:23:35;2.40;;;0.57;;
21564;SDS011;10943;48.738;9.320;2022-09-13T13:36:58;1.73;;;0.60;;
21564;SDS011;10943;48.738;9.320;2022-09-13T13:39:41;1.55;;;0.30;;
21564;SDS011;10943;48.738;9.320;2022-09-13T13:42:29;3.75;;;1.23;;
21564;SDS011;10943;48.738;9.320;2022-09-13T13:50:16;2.97;;;0.60;;
21564;SDS011;10943;48.738;9.320;2022-09-13T13:58:14;1.95;;;0.60;;
21564;SDS011;10943;48.738;9.320;2022-09-13T14:01:02;1.85;;;0.55;;
21564;SDS011;10943;48.738;9.320;2022-09-13T14:09:55;2.15;;;0.55;;
21564;SDS011;10943;48.738;9.320;2022-09-13T14:15:42;2.05;;;0.52;;
21564;SDS011;10943;48.738;9.320;2022-09-13T14:21:22;1.70;;;0.45;;
21564;SDS011;10943;48.738;9.320;2022-09-13T14:26:47;1.60;;;0.40;;
21564;SDS011;10943;48.738;9.320;2022-09-13T14:29:23;3.50;;;0.50;;
21564;SDS011;10943;48.738;9.320;2022-09-13T14:31:53;1.05;;;0.40;;
21564;SDS011;10943;48.738;9.320;2022-09-13T14:34:33;3.88;;;0.60;;
21564;SDS011;10943;48.738;9.320;2022-09-13T14:37:05;2.72;;;0.50;;
21564;SDS011;10943;48.738;9.320;2022-09-13T14:39:54;2.03;;;0.57;;
21564;SDS011;10943;48.738;9.320;2022-09-13T14:42:44;6.57;;;2.78;;
21564;SDS011;10943;48.738;9.320;2022-09-13T14:48:15;1.30;;;0.40;;
21564;SDS011;10943;48.738;9.320;2022-09-13T14:50:55;2.13;;;0.50;;
21564;SDS011;10943;48.738;9.320;2022-09-13T14:53:32;2.28;;;0.50;;
21564;SDS011;10943;48.738;9.320;2022-09-13T14:56:02;2.75;;;0.47;;
21564;SDS011;10943;48.738;9.320;2022-09-13T14:58:43;1.85;;;0.35;;
21564;SDS011;10943;48.738;9.320;2022-09-13T15:01:25;3.45;;;0.40;;
21564;SDS011;10943;48.738;9.320;2022-09-13T15:03:59;1.73;;;0.50;;
21564;SDS011;10943;48.738;9.320;2022-09-13T15:06:31;2.75;;;0.73;;
21564;SDS011;10943;48.738;9.320;2022-09-13T15:14:30;1.50;;;0.55;;
21564;SDS011;10943;48.738;9.320;2022-09-13T15:19:50;1.83;;;0.43;;
21564;SDS011;10943;48.738;9.320;2022-09-13T15:22:30;3.03;;;0.85;;
21564;SDS011;10943;48.738;9.320;2022-09-13T15:25:00;3.53;;;0.80;;
21564;SDS011;10943;48.738;9.320;2022-09-13T15:27:30;2.17;;;0.57;;
21564;SDS011;10943;48.738;9.320;2022-09-13T15:30:21;1.90;;;0.45;;
21564;SDS011;10943;48.738;9.320;2022-09-13T15:33:18;2.47;;;0.68;;
21564;SDS011;10943;48.738;9.320;2022-09-13T15:36:11;3.80;;;0.82;;
21564;SDS011;10943;48.738;9.320;2022-09-13T15:41:35;3.13;;;0.60;;
21564;SDS011;10943;48.738;9.320;2022-09-13T15:44:08;2.80;;;0.60;;
21564;SDS011;10943;48.738;9.320;2022-09-13T15:46:36;2.55;;;0.60;;
21564;SDS011;10943;48.738;9.320;2022-09-13T15:49:19;1.52;;;0.60;;
21564;SDS011;10943;48.738;9.320;2022-09-13T15:51:57;2.70;;;0.90;;
21564;SDS011;10943;48.738;9.320;2022-09-13T15:54:33;2.65;;;0.60;;
21564;SDS011;10943;48.738;9.320;2022-09-13T15:57:09;3.45;;;0.80;;
21564;SDS011;10943;48.738;9.320;2022-09-13T15:59:47;2.90;;;0.90;;
21564;SDS011;10943;48.738;9.320;2022-09-13T16:02:16;2.40;;;0.60;;
21564;SDS011;10943;48.738;9.320;2022-09-13T16:04:51;2.15;;;0.73;;
21564;SDS011;10943;48.738;9.320;2022-09-13T16:07:21;2.90;;;0.60;;
21564;SDS011;10943;48.738;9.320;2022-09-13T16:09:51;1.98;;;0.63;;
21564;SDS011;10943;48.738;9.320;2022-09-13T16:12:19;2.50;;;0.70;;
21564;SDS011;10943;48.738;9.320;2022-09-13T16:14:49;2.47;;;0.50;;
21564;SDS011;10943;48.738;9.320;2022-09-13T16:17:21;4.07;;;1.02;;
21564;SDS011;10943;48.738;9.320;2022-09-13T16:19:52;2.58;;;0.60;;
21564;SDS011;10943;48.738;9.320;2022-09-13T16:22:21;3.90;;;0.60;;
21564;SDS011;10943;48.738;9.320;2022-09-13T16:24:48;3.22;;;0.80;;
21564;SDS011;10943;48.738;9.320;2022-09-13T16:27:16;2.30;;;0.70;;
21564;SDS011;10943;48.738;9.320;2022-09-13T16:29:46;2.08;;;0.80;;
21564;SDS011;10943;48.738;9.320;2022-09-13T16:32:14;2.45;;;0.70;;
21564;SDS011;10943;48.738;9.320;2022-09-13T16:34:41;2.05;;;0.70;;
21564;SDS011;10943;48.738;9.320;2022-09-13T16:37:11;2.42;;;0.90;;
21564;SDS011;10943;48.738;9.320;2022-09-13T16:39:42;3.13;;;0.82;;
21564;SDS011;10943;48.738;9.320;2022-09-13T16:42:11;3.33;;;0.57;;
21564;SDS011;10943;48.738;9.320;2022-09-13T16:44:41;1.83;;;0.60;;
21564;SDS011;10943;48.738;9.320;2022-09-13T16:47:10;2.35;;;0.80;;
21564;SDS011;10943;48.738;9.320;2022-09-13T16:49:37;1.77;;;0.63;;
21564;SDS011;10943;48.738;9.320;2022-09-13T16:52:05;2.90;;;0.70;;
21564;SDS011;10943;48.738;9.320;2022-09-13T16:54:35;4.70;;;1.15;;
21564;SDS011;10943;48.738;9.320;2022-09-13T16:57:04;3.47;;;1.73;;
21564;SDS011;10943;48.738;9.320;2022-09-13T16:59:32;4.15;;;1.63;;
21564;SDS011;10943;48.738;9.320;2022-09-13T17:02:03;3.03;;;1.10;;
21564;SDS011;10943;48.738;9.320;2022-09-13T17:04:31;3.35;;;1.40;;
21564;SDS011;10943;48.738;9.320;2022-09-13T17:06:58;4.68;;;1.50;;
21564;SDS011;10943;48.738;9.320;2022-09-13T17:09:27;4.30;;;1.85;;
21564;SDS011;10943;48.738;9.320;2022-09-13T17:11:56;6.03;;;3.00;;
21564;SDS011;10943;48.738;9.320;2022-09-13T17:14:24;5.38;;;1.85;;
21564;SDS011;10943;48.738;9.320;2022-09-13T17:16:53;5.72;;;1.40;;
21564;SDS011;10943;48.738;9.320;2022-09-13T17:19:24;5.57;;;1.88;;
21564;SDS011;10943;48.738;9.320;2022-09-13T17:21:59;5.35;;;2.20;;
21564;SDS011;10943;48.738;9.320;2022-09-13T17:24:34;3.80;;;1.70;;
21564;SDS011;10943;48.738;9.320;2022-09-13T17:27:03;6.22;;;2.03;;
21564;SDS011;10943;48.738;9.320;2022-09-13T17:29:33;3.30;;;1.45;;
21564;SDS011;10943;48.738;9.320;2022-09-13T17:32:02;6.15;;;1.70;;
21564;SDS011;10943;48.738;9.320;2022-09-13T17:34:31;6.53;;;2.53;;
21564;SDS011;10943;48.738;9.320;2022-09-13T17:37:00;6.47;;;2.45;;
21564;SDS011;10943;48.738;9.320;2022-09-13T17:39:29;3.95;;;2.05;;
21564;SDS011;10943;48.738;9.320;2022-09-13T17:41:57;5.95;;;2.03;;
21564;SDS011;10943;48.738;9.320;2022-09-13T17:44:24;3.58;;;1.70;;
21564;SDS011;10943;48.738;9.320;2022-09-13T17:46:51;3.78;;;1.80;;
21564;SDS011;10943;48.738;9.320;2022-09-13T17:49:19;5.13;;;1.60;;
21564;SDS011;10943;48.738;9.320;2022-09-13T17:51:46;3.42;;;1.55;;
21564;SDS011;10943;48.738;9.320;2022-09-13T17:54:13;4.28;;;1.65;;
21564;SDS011;10943;48.738;9.320;2022-09-13T17:56:42;4.13;;;1.90;;
21564;SDS011;10943;48.738;9.320;2022-09-13T17:59:11;4.72;;;1.80;;
21564;SDS011;10943;48.738;9.320;2022-09-13T18:01:46;5.97;;;2.40;;
21564;SDS011;10943;48.738;9.320;2022-09-13T18:04:30;7.95;;;3.47;;
21564;SDS011;10943;48.738;9.320;2022-09-13T18:06:57;5.68;;;3.25;;
21564;SDS011;10943;48.738;9.320;2022-09-13T18:09:25;7.45;;;3.75;;
21564;SDS011;10943;48.738;9.320;2022-09-13T18:11:52;6.55;;;3.63;;
21564;SDS011;10943;48.738;9.320;2022-09-13T18:14:20;9.48;;;4.88;;
21564;SDS011;10943;48.738;9.320;2022-09-13T18:16:49;8.35;;;4.40;;
21564;SDS011;10943;48.738;9.320;2022-09-13T18:19:21;7.53;;;4.63;;
21564;SDS011;10943;48.738;9.320;2022-09-13T18:22:14;10.27;;;4.50;;
21564;SDS011;10943;48.738;9.320;2022-09-13T18:24:45;8.13;;;4.53;;
21564;SDS011;10943;48.738;9.320;2022-09-13T18:27:14;12.05;;;5.15;;
21564;SDS011;10943;48.738;9.320;2022-09-13T18:29:43;8.30;;;4.50;;
21564;SDS011;10943;48.738;9.320;2022-09-13T18:32:23;10.45;;;5.70;;
21564;SDS011;10943;48.738;9.320;2022-09-13T18:34:55;7.65;;;4.10;;
21564;SDS011;10943;48.738;9.320;2022-09-13T18:37:26;7.45;;;3.60;;
21564;SDS011;10943;48.738;9.320;2022-09-13T18:40:02;8.90;;;5.00;;
21564;SDS011;10943;48.738;9.320;2022-09-13T18:42:38;9.20;;;5.18;;
21564;SDS011;10943;48.738;9.320;2022-09-13T18:45:11;9.05;;;4.95;;
21564;SDS011;10943;48.738;9.320;2022-09-13T18:47:47;8.27;;;5.20;;
21564;SDS011;10943;48.738;9.320;2022-09-13T18:50:20;6.50;;;4.03;;
21564;SDS011;10943;48.738;9.320;2022-09-13T18:52:51;6.07;;;3.03;;
21564;SDS011;10943;48.738;9.320;2022-09-13T18:55:27;7.00;;;3.22;;
21564;SDS011;10943;48.738;9.320;2022-09-13T18:58:17;7.15;;;3.60;;
21564;SDS011;10943;48.738;9.320;2022-09-13T19:01:40;8.13;;;4.00;;
21564;SDS011;10943;48.738;9.320;2022-09-13T19:04:19;7.57;;;4.05;;
21564;SDS011;10943;48.738;9.320;2022-09-13T19:06:56;7.20;;;4.00;;
21564;SDS011;10943;48.738;9.320;2022-09-13T19:09:24;7.63;;;3.13;;
21564;SDS011;10943;48.738;9.320;2022-09-13T19:11:52;6.28;;;3.05;;
21564;SDS011;10943;48.738;9.320;2022-09-13T19:14:22;6.00;;;3.00;;